sensor_id;sensor_type;location;lat;lon;timestamp;P1;durP1;ratioP1;P2;durP2;ratioP2
6117;SDS011;3089;48.202;11.510;2023-03-01T00:01:28;17.83;;;8.97;;
6117;SDS011;3089;48.202;11.510;2023-03-01T00:03:57;15.90;;;8.10;;
6117;SDS011;3089;48.202;11.510;2023-03-01T00:06:27;18.43;;;10.23;;
6117;SDS011;3089;48.202;11.510;2023-03-01T00:08:56;18.30;;;8.80;;
6117;SDS011;3089;48.202;11.510;2023-03-01T00:11:24;20.60;;;9.93;;
6117;SDS011;3089;48.202;11.510;2023-03-01T00:13:54;20.70;;;10.13;;
6117;SDS011;3089;48.202;11.510;2023-03-01T00:16:25;23.17;;;11.37;;
6117;SDS011;3089;48.202;11.510;2023-03-01T00:18:55;19.73;;;10.73;;
6117;SDS011;3089;48.202;11.510;2023-03-01T00:21:24;17.90;;;9.60;;
6117;SDS011;3089;48.202;11.510;2023-03-01T00:23:55;19.50;;;11.00;;
6117;SDS011;3089;48.202;11.510;2023-03-01T00:26:23;20.53;;;10.50;;
6117;SDS011;3089;48.202;11.510;2023-03-01T00:28:53;22.57;;;12.30;;
6117;SDS011;3089;48.202;11.510;2023-03-01T00:31:22;15.97;;;8.87;;
6117;SDS011;3089;48.202;11.510;2023-03-01T00:33:52;20.37;;;9.27;;
6117;SDS011;3089;48.202;11.510;2023-03-01T00:36:23;20.87;;;10.33;;
6117;SDS011;3089;48.202;11.510;2023-03-01T00:38:54;22.47;;;10.30;;
6117;SDS011;3089;48.202;11.510;2023-03-01T00:41:22;21.30;;;12.03;;
6117;SDS011;3089;48.202;11.510;2023-03-01T00:43:52;16.97;;;9.10;;
6117;SDS011;3089;48.202;11.510;2023-03-01T00:46:21;20.17;;;10.33;;
6117;SDS011;3089;48.202;11.510;2023-03-01T00:48:50;17.70;;;9.90;;
6117;SDS011;3089;48.202;11.510;2023-03-01T00:51:19;21.30;;;10.47;;
6117;SDS011;3089;48.202;11.510;2023-03-01T00:53:50;18.53;;;10.07;;
6117;SDS011;3089;48.202;11.510;2023-03-01T00:56:20;19.90;;;10.47;;
6117;SDS011;3089;48.202;11.510;2023-03-01T00:58:48;17.20;;;9.10;;
6117;SDS011;3089;48.202;11.510;2023-03-01T01:01:16;28.47;;;12.73;;
6117;SDS011;3089;48.202;11.510;2023-03-01T01:03:47;19.00;;;9.10;;
6117;SDS011;3089;48.202;11.510;2023-03-01T01:06:16;19.23;;;10.20;;
6117;SDS011;3089;48.202;11.510;2023-03-01T01:08:46;15.87;;;8.33;;
6117;SDS011;3089;48.202;11.510;2023-03-01T01:11:14;23.53;;;10.40;;
6117;SDS011;3089;48.202;11.510;2023-03-01T01:13:44;17.40;;;9.30;;
6117;SDS011;3089;48.202;11.510;2023-03-01T01:16:14;19.90;;;8.67;;
6117;SDS011;3089;48.202;11.510;2023-03-01T01:18:43;22.63;;;10.10;;
6117;SDS011;3089;48.202;11.510;2023-03-01T01:21:11;22.53;;;12.00;;
6117;SDS011;3089;48.202;11.510;2023-03-01T01:23:41;17.10;;;10.37;;
6117;SDS011;3089;48.202;11.510;2023-03-01T01:26:11;19.47;;;11.00;;
6117;SDS011;3089;48.202;11.510;2023-03-01T01:28:41;16.63;;;9.33;;
6117;SDS011;3089;48.202;11.510;2023-03-01T01:31:10;19.90;;;9.10;;
6117;SDS011;3089;48.202;11.510;2023-03-01T01:33:38;22.80;;;10.77;;
6117;SDS011;3089;48.202;11.510;2023-03-01T01:36:06;21.37;;;10.67;;
6117;SDS011;3089;48.202;11.510;2023-03-01T01:38:35;17.47;;;10.37;;
6117;SDS011;3089;48.202;11.510;2023-03-01T01:41:05;18.73;;;9.90;;
6117;SDS011;3089;48.202;11.510;2023-03-01T01:43:34;26.30;;;12.90;;
6117;SDS011;3089;48.202;11.510;2023-03-01T01:46:04;25.60;;;11.23;;
6117;SDS011;3089;48.202;11.510;2023-03-01T01:48:37;23.07;;;10.10;;
6117;SDS011;3089;48.202;11.510;2023-03-01T01:51:11;16.93;;;10.23;;
6117;SDS011;3089;48.202;11.510;2023-03-01T01:53:46;17.80;;;10.37;;
6117;SDS011;3089;48.202;11.510;2023-03-01T01:56:18;19.23;;;9.30;;
6117;SDS011;3089;48.202;11.510;2023-03-01T01:58:47;17.97;;;8.60;;
6117;SDS011;3089;48.202;11.510;2023-03-01T02:01:15;15.70;;;8.73;;
6117;SDS011;3089;48.202;11.510;2023-03-01T02:03:44;18.57;;;9.70;;
6117;SDS011;3089;48.202;11.510;2023-03-01T02:06:17;19.80;;;9.47;;
6117;SDS011;3089;48.202;11.510;2023-03-01T02:08:48;21.13;;;10.53;;
6117;SDS011;3089;48.202;11.510;2023-03-01T02:11:19;16.73;;;9.50;;
6117;SDS011;3089;48.202;11.510;2023-03-01T02:13:48;18.23;;;9.67;;
6117;SDS011;3089;48.202;11.510;2023-03-01T02:16:17;20.20;;;10.90;;
6117;SDS011;3089;48.202;11.510;2023-03-01T02:18:46;15.83;;;8.47;;
6117;SDS011;3089;48.202;11.510;2023-03-01T02:21:17;18.73;;;9.97;;
6117;SDS011;3089;48.202;11.510;2023-03-01T02:23:54;23.07;;;9.80;;
6117;SDS011;3089;48.202;11.510;2023-03-01T02:26:25;19.97;;;10.67;;
6117;SDS011;3089;48.202;11.510;2023-03-01T02:29:01;16.50;;;8.50;;
6117;SDS011;3089;48.202;11.510;2023-03-01T02:31:31;18.63;;;10.50;;
6117;SDS011;3089;48.202;11.510;2023-03-01T02:34:09;15.43;;;8.10;;
6117;SDS011;3089;48.202;11.510;2023-03-01T02:36:39;18.10;;;10.13;;
6117;SDS011;3089;48.202;11.510;2023-03-01T02:39:10;20.20;;;10.67;;
6117;SDS011;3089;48.202;11.510;2023-03-01T02:41:44;17.97;;;10.27;;
6117;SDS011;3089;48.202;11.510;2023-03-01T02:44:16;18.60;;;9.70;;
6117;SDS011;3089;48.202;11.510;2023-03-01T02:46:44;19.50;;;10.63;;
6117;SDS011;3089;48.202;11.510;2023-03-01T02:49:19;17.90;;;9.63;;
6117;SDS011;3089;48.202;11.510;2023-03-01T02:51:52;16.43;;;9.80;;
6117;SDS011;3089;48.202;11.510;2023-03-01T02:54:33;15.50;;;8.60;;
6117;SDS011;3089;48.202;11.510;2023-03-01T02:57:07;18.90;;;9.90;;
6117;SDS011;3089;48.202;11.510;2023-03-01T02:59:37;24.53;;;10.80;;
6117;SDS011;3089;48.202;11.510;2023-03-01T03:02:07;18.03;;;10.37;;
6117;SDS011;3089;48.202;11.510;2023-03-01T03:04:35;19.10;;;11.27;;
6117;SDS011;3089;48.202;11.510;2023-03-01T03:07:02;17.87;;;9.13;;
6117;SDS011;3089;48.202;11.510;2023-03-01T03:09:30;21.17;;;10.77;;
6117;SDS011;3089;48.202;11.510;2023-03-01T03:11:58;19.70;;;11.70;;
6117;SDS011;3089;48.202;11.510;2023-03-01T03:14:26;21.70;;;10.50;;
6117;SDS011;3089;48.202;11.510;2023-03-01T03:16:55;19.10;;;9.97;;
6117;SDS011;3089;48.202;11.510;2023-03-01T03:19:23;19.43;;;11.20;;
6117;SDS011;3089;48.202;11.510;2023-03-01T03:21:51;18.03;;;8.90;;
6117;SDS011;3089;48.202;11.510;2023-03-01T03:24:19;18.43;;;8.67;;
6117;SDS011;3089;48.202;11.510;2023-03-01T03:26:47;17.30;;;9.93;;
6117;SDS011;3089;48.202;11.510;2023-03-01T03:29:15;16.77;;;9.60;;
6117;SDS011;3089;48.202;11.510;2023-03-01T03:31:42;19.93;;;10.10;;
6117;SDS011;3089;48.202;11.510;2023-03-01T03:34:12;18.87;;;9.77;;
6117;SDS011;3089;48.202;11.510;2023-03-01T03:36:44;16.70;;;9.27;;
6117;SDS011;3089;48.202;11.510;2023-03-01T03:39:11;15.43;;;9.13;;
6117;SDS011;3089;48.202;11.510;2023-03-01T03:41:39;19.77;;;10.83;;
6117;SDS011;3089;48.202;11.510;2023-03-01T03:44:07;24.90;;;13.57;;
6117;SDS011;3089;48.202;11.510;2023-03-01T03:46:35;21.37;;;11.80;;
6117;SDS011;3089;48.202;11.510;2023-03-01T03:49:03;20.53;;;9.60;;
6117;SDS011;3089;48.202;11.510;2023-03-01T03:51:32;20.20;;;10.73;;
6117;SDS011;3089;48.202;11.510;2023-03-01T03:54:00;18.87;;;10.27;;
6117;SDS011;3089;48.202;11.510;2023-03-01T03:56:28;22.33;;;11.10;;
6117;SDS011;3089;48.202;11.510;2023-03-01T03:58:56;18.50;;;9.90;;
6117;SDS011;3089;48.202;11.510;2023-03-01T04:01:24;19.77;;;10.57;;
6117;SDS011;3089;48.202;11.510;2023-03-01T04:03:52;15.17;;;9.07;;
6117;SDS011;3089;48.202;11.510;2023-03-01T04:06:20;18.97;;;10.97;;
6117;SDS011;3089;48.202;11.510;2023-03-01T04:08:50;20.70;;;11.23;;
6117;SDS011;3089;48.202;11.510;2023-03-01T04:11:24;25.03;;;11.13;;
6117;SDS011;3089;48.202;11.510;2023-03-01T04:13:55;21.77;;;11.40;;
6117;SDS011;3089;48.202;11.510;2023-03-01T04:16:24;17.40;;;8.80;;
6117;SDS011;3089;48.202;11.510;2023-03-01T04:18:52;18.87;;;10.13;;
6117;SDS011;3089;48.202;11.510;2023-03-01T04:21:20;19.00;;;9.67;;
6117;SDS011;3089;48.202;11.510;2023-03-01T04:23:48;18.47;;;9.90;;
6117;SDS011;3089;48.202;11.510;2023-03-01T04:26:19;21.83;;;11.60;;
6117;SDS011;3089;48.202;11.510;2023-03-01T04:28:47;19.80;;;10.30;;
6117;SDS011;3089;48.202;11.510;2023-03-01T04:31:17;18.33;;;10.60;;
6117;SDS011;3089;48.202;11.510;2023-03-01T04:33:48;19.70;;;10.17;;
6117;SDS011;3089;48.202;11.510;2023-03-01T04:36:18;17.27;;;9.37;;
6117;SDS011;3089;48.202;11.510;2023-03-01T04:38:48;20.30;;;10.97;;
6117;SDS011;3089;48.202;11.510;2023-03-01T04:41:19;19.20;;;11.40;;
6117;SDS011;3089;48.202;11.510;2023-03-01T04:43:48;21.33;;;9.90;;
6117;SDS011;3089;48.202;11.510;2023-03-01T04:46:17;18.13;;;8.80;;
6117;SDS011;3089;48.202;11.510;2023-03-01T04:48:46;20.80;;;11.43;;
6117;SDS011;3089;48.202;11.510;2023-03-01T04:51:14;21.33;;;9.27;;
6117;SDS011;3089;48.202;11.510;2023-03-01T04:53:42;17.03;;;9.07;;
6117;SDS011;3089;48.202;11.510;2023-03-01T04:56:12;18.70;;;10.07;;
6117;SDS011;3089;48.202;11.510;2023-03-01T04:58:41;19.60;;;10.57;;
6117;SDS011;3089;48.202;11.510;2023-03-01T05:01:09;18.63;;;9.87;;
6117;SDS011;3089;48.202;11.510;2023-03-01T05:03:41;20.10;;;9.57;;
6117;SDS011;3089;48.202;11.510;2023-03-01T05:06:11;18.40;;;10.00;;
6117;SDS011;3089;48.202;11.510;2023-03-01T05:08:39;16.87;;;9.00;;
6117;SDS011;3089;48.202;11.510;2023-03-01T05:11:08;18.97;;;10.67;;
6117;SDS011;3089;48.202;11.510;2023-03-01T05:13:38;18.33;;;9.43;;
6117;SDS011;3089;48.202;11.510;2023-03-01T05:16:07;20.10;;;9.83;;
6117;SDS011;3089;48.202;11.510;2023-03-01T05:18:37;16.67;;;9.40;;
6117;SDS011;3089;48.202;11.510;2023-03-01T05:21:07;20.40;;;10.30;;
6117;SDS011;3089;48.202;11.510;2023-03-01T05:23:37;19.17;;;9.23;;
6117;SDS011;3089;48.202;11.510;2023-03-01T05:26:05;17.10;;;8.90;;
6117;SDS011;3089;48.202;11.510;2023-03-01T05:28:42;14.63;;;8.40;;
6117;SDS011;3089;48.202;11.510;2023-03-01T05:31:11;19.70;;;9.23;;
6117;SDS011;3089;48.202;11.510;2023-03-01T05:33:39;17.47;;;9.43;;
6117;SDS011;3089;48.202;11.510;2023-03-01T05:36:08;20.87;;;10.83;;
6117;SDS011;3089;48.202;11.510;2023-03-01T05:38:36;19.73;;;10.03;;
6117;SDS011;3089;48.202;11.510;2023-03-01T05:41:04;20.93;;;10.43;;
6117;SDS011;3089;48.202;11.510;2023-03-01T05:43:40;19.20;;;10.23;;
6117;SDS011;3089;48.202;11.510;2023-03-01T05:46:10;20.73;;;9.30;;
6117;SDS011;3089;48.202;11.510;2023-03-01T05:48:39;21.20;;;9.70;;
6117;SDS011;3089;48.202;11.510;2023-03-01T05:51:07;26.20;;;12.00;;
6117;SDS011;3089;48.202;11.510;2023-03-01T05:53:35;12.93;;;7.40;;
6117;SDS011;3089;48.202;11.510;2023-03-01T05:56:03;17.80;;;8.83;;
6117;SDS011;3089;48.202;11.510;2023-03-01T05:58:32;18.93;;;10.03;;
6117;SDS011;3089;48.202;11.510;2023-03-01T06:01:00;16.20;;;8.47;;
6117;SDS011;3089;48.202;11.510;2023-03-01T06:03:29;20.53;;;10.00;;
6117;SDS011;3089;48.202;11.510;2023-03-01T06:05:57;24.70;;;11.50;;
6117;SDS011;3089;48.202;11.510;2023-03-01T06:08:25;27.13;;;12.03;;
6117;SDS011;3089;48.202;11.510;2023-03-01T06:10:53;18.87;;;10.90;;
6117;SDS011;3089;48.202;11.510;2023-03-01T06:13:21;22.00;;;12.80;;
6117;SDS011;3089;48.202;11.510;2023-03-01T06:15:49;39.07;;;13.10;;
6117;SDS011;3089;48.202;11.510;2023-03-01T06:18:18;20.60;;;10.30;;
6117;SDS011;3089;48.202;11.510;2023-03-01T06:20:51;18.80;;;10.47;;
6117;SDS011;3089;48.202;11.510;2023-03-01T06:23:20;20.83;;;11.20;;
6117;SDS011;3089;48.202;11.510;2023-03-01T06:25:48;17.80;;;10.53;;
6117;SDS011;3089;48.202;11.510;2023-03-01T06:28:15;21.40;;;10.60;;
6117;SDS011;3089;48.202;11.510;2023-03-01T06:30:43;16.30;;;9.03;;
6117;SDS011;3089;48.202;11.510;2023-03-01T06:33:12;18.93;;;10.53;;
6117;SDS011;3089;48.202;11.510;2023-03-01T06:35:42;24.00;;;11.23;;
6117;SDS011;3089;48.202;11.510;2023-03-01T06:38:11;21.70;;;11.70;;
6117;SDS011;3089;48.202;11.510;2023-03-01T06:40:40;21.77;;;10.03;;
6117;SDS011;3089;48.202;11.510;2023-03-01T06:43:08;20.73;;;13.13;;
6117;SDS011;3089;48.202;11.510;2023-03-01T06:45:36;20.43;;;11.30;;
6117;SDS011;3089;48.202;11.510;2023-03-01T06:48:05;24.27;;;10.53;;
6117;SDS011;3089;48.202;11.510;2023-03-01T06:50:34;18.13;;;9.80;;
6117;SDS011;3089;48.202;11.510;2023-03-01T06:53:02;17.47;;;10.50;;
6117;SDS011;3089;48.202;11.510;2023-03-01T06:55:31;13.73;;;5.90;;
6117;SDS011;3089;48.202;11.510;2023-03-01T06:58:00;20.63;;;11.60;;
6117;SDS011;3089;48.202;11.510;2023-03-01T07:00:29;20.80;;;12.10;;
6117;SDS011;3089;48.202;11.510;2023-03-01T07:02:58;24.20;;;14.20;;
6117;SDS011;3089;48.202;11.510;2023-03-01T07:05:28;24.90;;;10.50;;
6117;SDS011;3089;48.202;11.510;2023-03-01T07:07:56;19.83;;;10.30;;
6117;SDS011;3089;48.202;11.510;2023-03-01T07:10:24;26.07;;;9.70;;
6117;SDS011;3089;48.202;11.510;2023-03-01T07:12:55;25.97;;;12.10;;
6117;SDS011;3089;48.202;11.510;2023-03-01T07:15:23;23.87;;;12.70;;
6117;SDS011;3089;48.202;11.510;2023-03-01T07:17:51;22.13;;;11.37;;
6117;SDS011;3089;48.202;11.510;2023-03-01T07:20:19;21.63;;;12.50;;
6117;SDS011;3089;48.202;11.510;2023-03-01T07:22:50;22.57;;;12.50;;
6117;SDS011;3089;48.202;11.510;2023-03-01T07:25:18;23.07;;;11.40;;
6117;SDS011;3089;48.202;11.510;2023-03-01T07:27:49;29.40;;;10.23;;
6117;SDS011;3089;48.202;11.510;2023-03-01T07:30:19;22.90;;;11.10;;
6117;SDS011;3089;48.202;11.510;2023-03-01T07:32:48;24.43;;;11.63;;
6117;SDS011;3089;48.202;11.510;2023-03-01T07:35:15;23.27;;;9.70;;
6117;SDS011;3089;48.202;11.510;2023-03-01T07:37:43;21.00;;;11.03;;
6117;SDS011;3089;48.202;11.510;2023-03-01T07:40:11;19.70;;;11.57;;
6117;SDS011;3089;48.202;11.510;2023-03-01T07:42:40;21.90;;;11.60;;
6117;SDS011;3089;48.202;11.510;2023-03-01T07:45:08;22.63;;;10.23;;
6117;SDS011;3089;48.202;11.510;2023-03-01T07:47:38;21.30;;;11.10;;
6117;SDS011;3089;48.202;11.510;2023-03-01T07:50:06;17.03;;;9.23;;
6117;SDS011;3089;48.202;11.510;2023-03-01T07:52:37;22.77;;;11.30;;
6117;SDS011;3089;48.202;11.510;2023-03-01T07:55:05;19.30;;;10.40;;
6117;SDS011;3089;48.202;11.510;2023-03-01T07:57:33;24.70;;;10.97;;
6117;SDS011;3089;48.202;11.510;2023-03-01T08:00:01;28.23;;;12.63;;
6117;SDS011;3089;48.202;11.510;2023-03-01T08:02:29;21.90;;;11.90;;
6117;SDS011;3089;48.202;11.510;2023-03-01T08:04:59;20.70;;;10.77;;
6117;SDS011;3089;48.202;11.510;2023-03-01T08:07:27;23.93;;;10.67;;
6117;SDS011;3089;48.202;11.510;2023-03-01T08:09:55;21.93;;;11.40;;
6117;SDS011;3089;48.202;11.510;2023-03-01T08:12:22;25.93;;;12.30;;
6117;SDS011;3089;48.202;11.510;2023-03-01T08:14:50;19.37;;;9.27;;
6117;SDS011;3089;48.202;11.510;2023-03-01T08:17:18;16.30;;;9.73;;
6117;SDS011;3089;48.202;11.510;2023-03-01T08:19:46;23.43;;;12.30;;
6117;SDS011;3089;48.202;11.510;2023-03-01T08:22:15;22.83;;;11.97;;
6117;SDS011;3089;48.202;11.510;2023-03-01T08:24:43;25.10;;;11.37;;
6117;SDS011;3089;48.202;11.510;2023-03-01T08:27:11;23.17;;;11.67;;
6117;SDS011;3089;48.202;11.510;2023-03-01T08:29:39;28.57;;;14.40;;
6117;SDS011;3089;48.202;11.510;2023-03-01T08:32:07;23.93;;;12.90;;
6117;SDS011;3089;48.202;11.510;2023-03-01T08:34:35;26.23;;;14.03;;
6117;SDS011;3089;48.202;11.510;2023-03-01T08:37:02;25.37;;;13.57;;
6117;SDS011;3089;48.202;11.510;2023-03-01T08:39:32;21.70;;;11.37;;
6117;SDS011;3089;48.202;11.510;2023-03-01T08:42:00;26.10;;;11.83;;
6117;SDS011;3089;48.202;11.510;2023-03-01T08:44:28;25.93;;;12.23;;
6117;SDS011;3089;48.202;11.510;2023-03-01T08:46:55;26.40;;;12.80;;
6117;SDS011;3089;48.202;11.510;2023-03-01T08:49:24;24.60;;;11.67;;
6117;SDS011;3089;48.202;11.510;2023-03-01T08:51:52;28.40;;;13.57;;
6117;SDS011;3089;48.202;11.510;2023-03-01T08:54:20;24.47;;;11.93;;
6117;SDS011;3089;48.202;11.510;2023-03-01T08:56:50;27.30;;;12.47;;
6117;SDS011;3089;48.202;11.510;2023-03-01T08:59:18;30.07;;;12.83;;
6117;SDS011;3089;48.202;11.510;2023-03-01T09:01:46;27.10;;;14.63;;
6117;SDS011;3089;48.202;11.510;2023-03-01T09:04:14;24.30;;;12.87;;
6117;SDS011;3089;48.202;11.510;2023-03-01T09:06:42;29.37;;;15.73;;
6117;SDS011;3089;48.202;11.510;2023-03-01T09:09:13;27.87;;;15.10;;
6117;SDS011;3089;48.202;11.510;2023-03-01T09:11:42;21.77;;;10.67;;
6117;SDS011;3089;48.202;11.510;2023-03-01T09:14:13;20.93;;;11.73;;
6117;SDS011;3089;48.202;11.510;2023-03-01T09:16:41;21.53;;;11.07;;
6117;SDS011;3089;48.202;11.510;2023-03-01T09:19:09;19.93;;;10.77;;
6117;SDS011;3089;48.202;11.510;2023-03-01T09:21:38;24.83;;;13.30;;
6117;SDS011;3089;48.202;11.510;2023-03-01T09:24:07;25.13;;;12.87;;
6117;SDS011;3089;48.202;11.510;2023-03-01T09:26:40;23.00;;;11.77;;
6117;SDS011;3089;48.202;11.510;2023-03-01T09:29:08;24.57;;;11.93;;
6117;SDS011;3089;48.202;11.510;2023-03-01T09:31:38;18.80;;;10.67;;
6117;SDS011;3089;48.202;11.510;2023-03-01T09:34:06;22.47;;;13.53;;
6117;SDS011;3089;48.202;11.510;2023-03-01T09:36:34;24.77;;;12.20;;
6117;SDS011;3089;48.202;11.510;2023-03-01T09:39:03;25.00;;;13.27;;
6117;SDS011;3089;48.202;11.510;2023-03-01T09:41:38;27.60;;;12.60;;
6117;SDS011;3089;48.202;11.510;2023-03-01T09:44:13;23.43;;;12.60;;
6117;SDS011;3089;48.202;11.510;2023-03-01T09:46:49;27.23;;;13.50;;
6117;SDS011;3089;48.202;11.510;2023-03-01T09:49:19;23.03;;;10.20;;
6117;SDS011;3089;48.202;11.510;2023-03-01T09:51:54;20.87;;;10.60;;
6117;SDS011;3089;48.202;11.510;2023-03-01T09:54:25;22.60;;;10.87;;
6117;SDS011;3089;48.202;11.510;2023-03-01T09:57:00;30.17;;;14.17;;
6117;SDS011;3089;48.202;11.510;2023-03-01T09:59:48;25.30;;;11.90;;
6117;SDS011;3089;48.202;11.510;2023-03-01T10:02:28;24.37;;;12.03;;
6117;SDS011;3089;48.202;11.510;2023-03-01T10:05:05;24.00;;;12.87;;
6117;SDS011;3089;48.202;11.510;2023-03-01T10:07:43;27.17;;;13.93;;
6117;SDS011;3089;48.202;11.510;2023-03-01T10:10:23;22.17;;;11.90;;
6117;SDS011;3089;48.202;11.510;2023-03-01T10:12:54;29.37;;;13.23;;
6117;SDS011;3089;48.202;11.510;2023-03-01T10:15:25;25.23;;;12.27;;
6117;SDS011;3089;48.202;11.510;2023-03-01T10:18:03;26.53;;;13.33;;
6117;SDS011;3089;48.202;11.510;2023-03-01T10:20:40;24.60;;;13.10;;
6117;SDS011;3089;48.202;11.510;2023-03-01T10:23:13;26.23;;;12.20;;
6117;SDS011;3089;48.202;11.510;2023-03-01T10:25:47;26.63;;;14.83;;
6117;SDS011;3089;48.202;11.510;2023-03-01T10:28:25;21.80;;;10.50;;
6117;SDS011;3089;48.202;11.510;2023-03-01T10:30:57;29.53;;;15.07;;
6117;SDS011;3089;48.202;11.510;2023-03-01T10:33:28;26.50;;;13.33;;
6117;SDS011;3089;48.202;11.510;2023-03-01T10:35:58;23.90;;;12.20;;
6117;SDS011;3089;48.202;11.510;2023-03-01T10:38:26;27.87;;;14.40;;
6117;SDS011;3089;48.202;11.510;2023-03-01T10:40:58;26.60;;;13.93;;
6117;SDS011;3089;48.202;11.510;2023-03-01T10:43:43;26.53;;;13.40;;
6117;SDS011;3089;48.202;11.510;2023-03-01T10:46:22;22.50;;;11.83;;
6117;SDS011;3089;48.202;11.510;2023-03-01T10:49:11;25.67;;;13.87;;
6117;SDS011;3089;48.202;11.510;2023-03-01T10:51:42;25.63;;;12.97;;
6117;SDS011;3089;48.202;11.510;2023-03-01T10:54:16;25.70;;;14.20;;
6117;SDS011;3089;48.202;11.510;2023-03-01T10:56:46;28.50;;;13.63;;
6117;SDS011;3089;48.202;11.510;2023-03-01T10:59:22;22.37;;;11.27;;
6117;SDS011;3089;48.202;11.510;2023-03-01T11:02:04;25.17;;;13.77;;
6117;SDS011;3089;48.202;11.510;2023-03-01T11:04:58;26.77;;;14.30;;
6117;SDS011;3089;48.202;11.510;2023-03-01T11:07:28;26.07;;;13.47;;
6117;SDS011;3089;48.202;11.510;2023-03-01T11:09:56;29.67;;;15.93;;
6117;SDS011;3089;48.202;11.510;2023-03-01T11:12:24;26.60;;;12.93;;
6117;SDS011;3089;48.202;11.510;2023-03-01T11:14:54;32.17;;;14.50;;
6117;SDS011;3089;48.202;11.510;2023-03-01T11:17:23;23.93;;;13.80;;
6117;SDS011;3089;48.202;11.510;2023-03-01T11:20:05;22.90;;;12.97;;
6117;SDS011;3089;48.202;11.510;2023-03-01T11:22:44;24.30;;;12.53;;
6117;SDS011;3089;48.202;11.510;2023-03-01T11:25:14;20.10;;;10.20;;
6117;SDS011;3089;48.202;11.510;2023-03-01T11:27:44;23.77;;;13.40;;
6117;SDS011;3089;48.202;11.510;2023-03-01T11:30:16;27.83;;;14.20;;
6117;SDS011;3089;48.202;11.510;2023-03-01T11:32:50;24.83;;;13.80;;
6117;SDS011;3089;48.202;11.510;2023-03-01T11:35:26;25.73;;;14.40;;
6117;SDS011;3089;48.202;11.510;2023-03-01T11:37:58;24.03;;;12.60;;
6117;SDS011;3089;48.202;11.510;2023-03-01T11:40:33;29.37;;;16.57;;
6117;SDS011;3089;48.202;11.510;2023-03-01T11:43:05;23.57;;;12.47;;
6117;SDS011;3089;48.202;11.510;2023-03-01T11:45:45;27.80;;;15.80;;
6117;SDS011;3089;48.202;11.510;2023-03-01T11:48:25;26.43;;;13.50;;
6117;SDS011;3089;48.202;11.510;2023-03-01T11:51:18;25.97;;;14.47;;
6117;SDS011;3089;48.202;11.510;2023-03-01T11:53:55;28.23;;;15.13;;
6117;SDS011;3089;48.202;11.510;2023-03-01T11:56:31;24.73;;;13.07;;
6117;SDS011;3089;48.202;11.510;2023-03-01T12:08:10;25.50;;;11.67;;
6117;SDS011;3089;48.202;11.510;2023-03-01T12:10:42;26.70;;;13.27;;
6117;SDS011;3089;48.202;11.510;2023-03-01T12:13:23;30.13;;;15.80;;
6117;SDS011;3089;48.202;11.510;2023-03-01T12:16:23;23.37;;;12.67;;
6117;SDS011;3089;48.202;11.510;2023-03-01T12:19:15;27.73;;;14.00;;
6117;SDS011;3089;48.202;11.510;2023-03-01T12:22:09;23.90;;;12.30;;
6117;SDS011;3089;48.202;11.510;2023-03-01T12:25:02;26.10;;;14.40;;
6117;SDS011;3089;48.202;11.510;2023-03-01T12:27:46;28.50;;;14.37;;
6117;SDS011;3089;48.202;11.510;2023-03-01T12:30:26;23.33;;;13.97;;
6117;SDS011;3089;48.202;11.510;2023-03-01T12:33:11;24.90;;;12.73;;
6117;SDS011;3089;48.202;11.510;2023-03-01T12:35:53;24.20;;;13.47;;
6117;SDS011;3089;48.202;11.510;2023-03-01T12:38:32;26.80;;;16.10;;
6117;SDS011;3089;48.202;11.510;2023-03-01T12:41:10;26.63;;;15.27;;
6117;SDS011;3089;48.202;11.510;2023-03-01T12:43:58;25.97;;;13.30;;
6117;SDS011;3089;48.202;11.510;2023-03-01T12:46:37;27.23;;;14.13;;
6117;SDS011;3089;48.202;11.510;2023-03-01T12:49:19;27.40;;;13.87;;
6117;SDS011;3089;48.202;11.510;2023-03-01T12:51:54;26.53;;;13.27;;
6117;SDS011;3089;48.202;11.510;2023-03-01T12:54:26;26.07;;;13.67;;
6117;SDS011;3089;48.202;11.510;2023-03-01T12:56:58;23.20;;;13.33;;
6117;SDS011;3089;48.202;11.510;2023-03-01T12:59:34;26.57;;;13.20;;
6117;SDS011;3089;48.202;11.510;2023-03-01T13:02:09;27.43;;;12.33;;
6117;SDS011;3089;48.202;11.510;2023-03-01T13:04:51;27.97;;;13.23;;
6117;SDS011;3089;48.202;11.510;2023-03-01T13:07:29;24.70;;;14.17;;
6117;SDS011;3089;48.202;11.510;2023-03-01T13:10:08;28.50;;;15.40;;
6117;SDS011;3089;48.202;11.510;2023-03-01T13:12:59;22.07;;;12.13;;
6117;SDS011;3089;48.202;11.510;2023-03-01T13:15:31;25.23;;;14.80;;
6117;SDS011;3089;48.202;11.510;2023-03-01T13:18:01;23.67;;;12.90;;
6117;SDS011;3089;48.202;11.510;2023-03-01T13:20:33;23.80;;;12.63;;
6117;SDS011;3089;48.202;11.510;2023-03-01T13:23:12;24.30;;;13.77;;
6117;SDS011;3089;48.202;11.510;2023-03-01T13:26:05;22.93;;;13.60;;
6117;SDS011;3089;48.202;11.510;2023-03-01T13:34:40;27.63;;;13.37;;
6117;SDS011;3089;48.202;11.510;2023-03-01T13:37:10;35.07;;;16.90;;
6117;SDS011;3089;48.202;11.510;2023-03-01T13:39:46;27.87;;;15.57;;
6117;SDS011;3089;48.202;11.510;2023-03-01T13:45:32;27.53;;;14.30;;
6117;SDS011;3089;48.202;11.510;2023-03-01T13:48:08;27.27;;;12.53;;
6117;SDS011;3089;48.202;11.510;2023-03-01T13:50:38;26.83;;;14.53;;
6117;SDS011;3089;48.202;11.510;2023-03-01T13:53:14;26.33;;;14.40;;
6117;SDS011;3089;48.202;11.510;2023-03-01T13:55:45;26.80;;;14.23;;
6117;SDS011;3089;48.202;11.510;2023-03-01T13:58:18;23.70;;;12.70;;
6117;SDS011;3089;48.202;11.510;2023-03-01T14:00:56;22.53;;;12.00;;
6117;SDS011;3089;48.202;11.510;2023-03-01T14:03:26;24.30;;;11.80;;
6117;SDS011;3089;48.202;11.510;2023-03-01T14:06:03;29.90;;;13.07;;
6117;SDS011;3089;48.202;11.510;2023-03-01T14:08:41;27.60;;;16.17;;
6117;SDS011;3089;48.202;11.510;2023-03-01T14:11:18;25.93;;;13.93;;
6117;SDS011;3089;48.202;11.510;2023-03-01T14:14:20;24.73;;;13.67;;
6117;SDS011;3089;48.202;11.510;2023-03-01T14:17:01;22.37;;;13.07;;
6117;SDS011;3089;48.202;11.510;2023-03-01T14:19:43;20.53;;;11.27;;
6117;SDS011;3089;48.202;11.510;2023-03-01T14:22:16;23.37;;;12.57;;
6117;SDS011;3089;48.202;11.510;2023-03-01T14:24:48;22.20;;;12.13;;
6117;SDS011;3089;48.202;11.510;2023-03-01T14:27:18;24.40;;;13.20;;
6117;SDS011;3089;48.202;11.510;2023-03-01T14:29:53;21.90;;;11.70;;
6117;SDS011;3089;48.202;11.510;2023-03-01T14:32:25;22.98;;;11.90;;
6117;SDS011;3089;48.202;11.510;2023-03-01T14:34:54;23.33;;;13.13;;
6117;SDS011;3089;48.202;11.510;2023-03-01T14:37:24;18.93;;;11.20;;
6117;SDS011;3089;48.202;11.510;2023-03-01T14:39:54;20.27;;;10.77;;
6117;SDS011;3089;48.202;11.510;2023-03-01T14:42:24;21.13;;;11.83;;
6117;SDS011;3089;48.202;11.510;2023-03-01T14:44:55;24.00;;;14.53;;
6117;SDS011;3089;48.202;11.510;2023-03-01T14:47:27;22.63;;;12.40;;
6117;SDS011;3089;48.202;11.510;2023-03-01T14:49:57;23.57;;;12.33;;
6117;SDS011;3089;48.202;11.510;2023-03-01T14:52:30;22.37;;;12.07;;
6117;SDS011;3089;48.202;11.510;2023-03-01T14:55:02;23.50;;;13.20;;
6117;SDS011;3089;48.202;11.510;2023-03-01T14:57:32;21.87;;;12.00;;
6117;SDS011;3089;48.202;11.510;2023-03-01T15:00:01;22.90;;;11.87;;
6117;SDS011;3089;48.202;11.510;2023-03-01T15:02:34;23.63;;;11.07;;
6117;SDS011;3089;48.202;11.510;2023-03-01T15:05:03;24.80;;;14.37;;
6117;SDS011;3089;48.202;11.510;2023-03-01T15:07:35;22.90;;;11.20;;
6117;SDS011;3089;48.202;11.510;2023-03-01T15:10:07;25.77;;;12.30;;
6117;SDS011;3089;48.202;11.510;2023-03-01T15:12:44;20.40;;;10.90;;
6117;SDS011;3089;48.202;11.510;2023-03-01T15:15:22;26.30;;;14.00;;
6117;SDS011;3089;48.202;11.510;2023-03-01T15:18:15;19.57;;;11.30;;
6117;SDS011;3089;48.202;11.510;2023-03-01T15:20:45;18.83;;;11.40;;
6117;SDS011;3089;48.202;11.510;2023-03-01T15:23:23;22.97;;;11.43;;